Arties, Catalunya

latitud = 42° 42' 01''N | longitud = 00° 52' 37''E
1161 metros sobre el nivel del mar | datos mensuales

Fecha, hora, temperatura, viento dirección y velocidad, humedad y presión.

  • 21-06-2018 22:00:00 | 20.80°C | Sudoeste |7.00 km/h | 70.00% | 0.00 hPa
  • 21-06-2018 21:00:00 | 21.80°C | Sudoeste |5.00 km/h | 66.00% | 0.00 hPa
  • 21-06-2018 20:00:00 | 23.20°C | Sudoeste |6.00 km/h | 59.00% | 0.00 hPa
  • 21-06-2018 19:00:00 | 24.30°C | Sudoeste |5.00 km/h | 52.00% | 0.00 hPa
  • 21-06-2018 18:00:00 | 24.80°C | Sudoeste |5.00 km/h | 48.00% | 0.00 hPa
  • 21-06-2018 17:00:00 | 27.90°C | Sudoeste |8.00 km/h | 43.00% | 0.00 hPa
  • 21-06-2018 16:00:00 | 28.50°C | Sudoeste |8.00 km/h | 42.00% | 0.00 hPa
  • 21-06-2018 15:00:00 | 28.70°C | Sudoeste |6.00 km/h | 42.00% | 0.00 hPa
  • 21-06-2018 14:00:00 | 27.80°C | Sudoeste |5.00 km/h | 45.00% | 0.00 hPa
  • 21-06-2018 13:00:00 | 27.20°C | Sudoeste |6.00 km/h | 45.00% | 0.00 hPa
  • 21-06-2018 12:00:00 | 26.20°C | Sudoeste |7.00 km/h | 50.00% | 0.00 hPa
  • 21-06-2018 11:00:00 | 22.80°C | Oeste |3.00 km/h | 64.00% | 0.00 hPa
  • 21-06-2018 10:00:00 | 20.50°C | Calma |0.00 km/h | 70.00% | 0.00 hPa
  • 21-06-2018 09:00:00 | 19.30°C | Calma |0.00 km/h | 72.00% | 0.00 hPa
  • 21-06-2018 08:00:00 | 17.60°C | Este |5.00 km/h | 74.00% | 0.00 hPa
  • 21-06-2018 07:00:00 | 14.50°C | Nordeste |5.00 km/h | 89.00% | 0.00 hPa
  • 21-06-2018 06:00:00 | 14.20°C | Calma |0.00 km/h | 91.00% | 0.00 hPa
  • 21-06-2018 05:00:00 | 14.80°C | Nordeste |3.00 km/h | 88.00% | 0.00 hPa
  • 21-06-2018 04:00:00 | 15.40°C | Nordeste |2.00 km/h | 89.00% | 0.00 hPa
  • 21-06-2018 03:00:00 | 15.90°C | Nordeste |2.00 km/h | 88.00% | 0.00 hPa
  • 21-06-2018 02:00:00 | 17.20°C | Nordeste |5.00 km/h | 82.00% | 0.00 hPa
  • 21-06-2018 01:00:00 | 18.00°C | Nordeste |3.00 km/h | 79.00% | 0.00 hPa
  • 21-06-2018 00:00:00 | 19.30°C | Calma |0.00 km/h | 76.00% | 0.00 hPa
  • 20-06-2018 23:00:00 | 21.10°C | Sudoeste |3.00 km/h | 66.00% | 0.00 hPa